Portada
METAR-TAF:

METAR-TAF

Aeropuertos :

Yao, Japón

latitud: 34-36N, longitud: 135-36E, altitud: 10 m

Observación

El informe se hizo hace 31 minutos, a las 10:00 UTC
Viento 5 kt del oeste
Temperatura 8°C
Humedad 57%
Presión 1024 hPa
Visibilidad 10 km o más
Escasas nubes a una altura de 3000 ft
Nubes dispersas a una altura de 9000 ft
Cielo nuboso a una altura de 11000 ft

METAR: RJOY 281000Z 28005KT 9999 FEW030 SCT090 BKN110 08/M00 Q1024

Hora: 19:31 (10:31 UTC)


TAF: falta

Observaciones y pronósticos meteorológicos de más de 4000 aeropuertos (mensajes METAR y TAF).

Los puntos amarillos y rojos representan las estaciones disponibles.

Ponga el ratón en el punto deseado para ver el nombre de la estación.

Haga clic para ver las observaciones y los pronósticos meteorológicos.

Para cambiar el mapa : haga clic en los botones verdes con una cruz de color negro para hacer un zoom, en el botón verde con un guión para alejar o en las flechas verdes para mapas adyacentes.


METAR-TAF: